Bontekoning — PH9144 — position and weather

sailwx.info

Track history (hours):
 
Tides and Currents Weather Stations Pressure Air Temp Water Temp Dewpoint Dewpoint Depression Visibility Wind Speed Wind Dir Waves Ship Positions

Bontekoning

Last reported at 2016-Sep-14 10:33 UTC. Time now 2016-Dec-11 04:18 UTC.
Position N 52°38' E 005°04'.
Warning: this ship's position is months out of date.

; draft 2.6 m.

Type: Sailing vessel. MMSI: 244107000.

Date/timePositionNaut miles runAvg speedWind from/ knotsBaromVisibWave heightAir tempDewpointWater temp
2016-Sep-14 10:33N 52°38' E 005°04'0 0.0
2016-Sep-14 09:34N 52°38' E 005°04'0 0.0
2016-Sep-14 08:33N 52°38' E 005°04'0 0.0
2016-Sep-14 07:33N 52°38' E 005°04'0 0.0
2016-Sep-14 06:34N 52°38' E 005°04'0 0.0
2016-Sep-14 03:34N 52°38' E 005°04'0 0.0
2016-Sep-13 22:34N 52°38' E 005°04'0 0.0
2016-Sep-13 20:34N 52°38' E 005°04'0 0.0
2016-Sep-13 18:34N 52°38' E 005°04'0 0.0
2016-Sep-13 17:34N 52°38' E 005°04'0 0.0
2016-Sep-13 16:33N 52°38' E 005°04'0 0.0
2016-Sep-13 11:33N 52°38' E 005°04'0 0.0
2016-Sep-13 09:33N 52°38' E 005°04'0 0.0
2016-Sep-13 07:34N 52°38' E 005°04'0 0.0
2016-Sep-13 06:34N 52°38' E 005°04'0 0.0
2016-Sep-13 04:33N 52°38' E 005°04'0 0.0
2016-Sep-13 02:33N 52°38' E 005°04'0 0.0
2016-Sep-12 23:34N 52°38' E 005°04'0 0.0
2016-Sep-12 21:34N 52°38' E 005°04'0 0.0
2016-Sep-12 19:34N 52°38' E 005°04'0 0.0
2016-Sep-12 17:34N 52°38' E 005°04'0 0.0
2016-Sep-12 14:34N 52°38' E 005°04'0 0.0
2016-Sep-12 13:34N 52°38' E 005°04'0 0.0
2016-Sep-12 12:33N 52°38' E 005°04'0 0.0
2016-Sep-12 11:33N 52°38' E 005°04'0 0.0
2016-Sep-12 10:34N 52°38' E 005°04'0 0.0
2016-Sep-12 07:34N 52°38' E 005°04'0 0.0
2016-Sep-12 06:33N 52°38' E 005°04'0 0.0
2016-Sep-12 03:34N 52°38' E 005°04'0 0.0
2016-Sep-12 01:34N 52°38' E 005°04'0 0.0
2016-Sep-11 23:34N 52°38' E 005°04'0 0.0
2016-Sep-11 22:33N 52°38' E 005°04'0 0.0
2016-Sep-11 21:33N 52°38' E 005°04'0 0.0
2016-Sep-11 20:34N 52°38' E 005°04'0 0.0
2016-Sep-11 19:33N 52°38' E 005°04'0 0.0
2016-Sep-11 18:34N 52°38' E 005°04'0 0.0
2016-Sep-11 17:34N 52°38' E 005°04'0 0.0
2016-Sep-11 16:34N 52°38' E 005°04'0 0.0
2016-Sep-11 15:34N 52°38' E 005°04'1 1.4
2016-Sep-11 14:33N 52°38' E 005°06'6 5.7
2016-Sep-11 13:34N 52°40' E 005°15'4 4.5
2016-Sep-11 12:33N 52°43' E 005°19'4 4.1
2016-Sep-11 11:33N 52°46' E 005°14'2 2.4
2016-Sep-11 10:34N 52°47' E 005°10'  
Track history (hours):
 
Tides and Currents Weather Stations Pressure Air Temp Water Temp Dewpoint Dewpoint Depression Visibility Wind Speed Wind Dir Waves Ship Positions

Bontekoning

Last reported at 2016-Sep-14 10:33 UTC. Time now 2016-Dec-11 04:18 UTC.
Position N 52°38' E 005°04'.
Warning: this ship's position is months out of date.

; draft 2.6 m.

Type: Sailing vessel. MMSI: 244107000.

Date/timePositionNaut miles runAvg speedWind from/ knotsBaromVisibWave heightAir tempDewpointWater temp
2016-Sep-14 10:33N 52°38' E 005°04'0 0.0
2016-Sep-14 09:34N 52°38' E 005°04'0 0.0
2016-Sep-14 08:33N 52°38' E 005°04'0 0.0
2016-Sep-14 07:33N 52°38' E 005°04'0 0.0
2016-Sep-14 06:34N 52°38' E 005°04'0 0.0
2016-Sep-14 03:34N 52°38' E 005°04'0 0.0
2016-Sep-13 22:34N 52°38' E 005°04'0 0.0
2016-Sep-13 20:34N 52°38' E 005°04'0 0.0
2016-Sep-13 18:34N 52°38' E 005°04'0 0.0
2016-Sep-13 17:34N 52°38' E 005°04'0 0.0
2016-Sep-13 16:33N 52°38' E 005°04'0 0.0
2016-Sep-13 11:33N 52°38' E 005°04'0 0.0
2016-Sep-13 09:33N 52°38' E 005°04'0 0.0
2016-Sep-13 07:34N 52°38' E 005°04'0 0.0
2016-Sep-13 06:34N 52°38' E 005°04'0 0.0
2016-Sep-13 04:33N 52°38' E 005°04'0 0.0
2016-Sep-13 02:33N 52°38' E 005°04'0 0.0
2016-Sep-12 23:34N 52°38' E 005°04'0 0.0
2016-Sep-12 21:34N 52°38' E 005°04'0 0.0
2016-Sep-12 19:34N 52°38' E 005°04'0 0.0
2016-Sep-12 17:34N 52°38' E 005°04'0 0.0
2016-Sep-12 14:34N 52°38' E 005°04'0 0.0
2016-Sep-12 13:34N 52°38' E 005°04'0 0.0
2016-Sep-12 12:33N 52°38' E 005°04'0 0.0
2016-Sep-12 11:33N 52°38' E 005°04'0 0.0
2016-Sep-12 10:34N 52°38' E 005°04'0 0.0
2016-Sep-12 07:34N 52°38' E 005°04'0 0.0
2016-Sep-12 06:33N 52°38' E 005°04'0 0.0
2016-Sep-12 03:34N 52°38' E 005°04'0 0.0
2016-Sep-12 01:34N 52°38' E 005°04'0 0.0
2016-Sep-11 23:34N 52°38' E 005°04'0 0.0
2016-Sep-11 22:33N 52°38' E 005°04'0 0.0
2016-Sep-11 21:33N 52°38' E 005°04'0 0.0
2016-Sep-11 20:34N 52°38' E 005°04'0 0.0
2016-Sep-11 19:33N 52°38' E 005°04'0 0.0
2016-Sep-11 18:34N 52°38' E 005°04'0 0.0
2016-Sep-11 17:34N 52°38' E 005°04'0 0.0
2016-Sep-11 16:34N 52°38' E 005°04'0 0.0
2016-Sep-11 15:34N 52°38' E 005°04'1 1.4
2016-Sep-11 14:33N 52°38' E 005°06'6 5.7
2016-Sep-11 13:34N 52°40' E 005°15'4 4.5
2016-Sep-11 12:33N 52°43' E 005°19'4 4.1
2016-Sep-11 11:33N 52°46' E 005°14'2 2.4
2016-Sep-11 10:34N 52°47' E 005°10'  

Dump ship's entire track history